createdAt,value
2019-04-14T00:01:23.775Z,30.17
2019-04-14T00:04:16.110Z,28.70
2019-04-14T00:06:46.283Z,29.80
2019-04-14T00:09:18.411Z,27.87
2019-04-14T00:11:48.121Z,28.03
2019-04-14T00:14:18.464Z,29.27
2019-04-14T00:16:47.259Z,28.47
2019-04-14T00:19:17.151Z,28.73
2019-04-14T00:21:46.127Z,28.70
2019-04-14T00:24:16.187Z,27.00
2019-04-14T00:26:45.127Z,28.63
2019-04-14T00:29:15.164Z,29.30
2019-04-14T00:31:43.934Z,29.33
2019-04-14T00:34:26.759Z,30.57
2019-04-14T00:37:25.102Z,28.63
2019-04-14T00:39:57.568Z,31.20
2019-04-14T00:42:36.460Z,27.43
2019-04-14T00:45:11.540Z,28.00
2019-04-14T00:47:55.697Z,28.30
2019-04-14T00:50:14.773Z,27.03
2019-04-14T00:52:43.721Z,28.33
2019-04-14T00:55:13.916Z,31.23
2019-04-14T00:57:42.714Z,29.67
2019-04-14T01:00:12.789Z,31.13
2019-04-14T01:02:42.950Z,31.03
2019-04-14T01:05:13.096Z,31.80
2019-04-14T01:10:02.258Z,29.47
2019-04-14T01:12:32.045Z,29.60
2019-04-14T01:15:00.923Z,28.50
2019-04-14T01:17:30.815Z,29.83
2019-04-14T01:19:59.823Z,27.50
2019-04-14T01:22:29.218Z,28.77
2019-04-14T01:24:57.968Z,30.27
2019-04-14T01:27:27.789Z,27.40
2019-04-14T01:29:56.583Z,30.37
2019-04-14T01:32:26.125Z,33.87
2019-04-14T01:34:55.950Z,31.60
2019-04-14T01:37:26.818Z,29.93
2019-04-14T01:39:56.676Z,28.40
2019-04-14T01:42:26.693Z,30.90
2019-04-14T01:44:55.507Z,30.23
2019-04-14T01:47:24.887Z,29.83
2019-04-14T01:49:53.733Z,27.70
2019-04-14T01:52:29.598Z,29.70
2019-04-14T01:55:26.909Z,25.70
2019-04-14T01:58:14.405Z,30.67
2019-04-14T02:01:21.637Z,28.20
2019-04-14T02:03:50.523Z,29.60
2019-04-14T02:06:20.182Z,29.07
2019-04-14T02:08:50.130Z,29.43
2019-04-14T02:11:19.040Z,29.30
2019-04-14T02:13:48.571Z,33.37
2019-04-14T02:16:25.979Z,30.03
2019-04-14T02:18:50.659Z,30.23
2019-04-14T02:21:19.462Z,28.47
2019-04-14T02:23:49.683Z,28.60
2019-04-14T02:26:19.762Z,28.57
2019-04-14T02:28:48.889Z,28.57
2019-04-14T02:31:35.573Z,27.40
2019-04-14T02:34:21.861Z,26.07
2019-04-14T02:36:46.338Z,27.13
2019-04-14T02:42:07.169Z,27.93
2019-04-14T02:49:18.887Z,27.60
2019-04-14T02:51:53.358Z,25.70
2019-04-14T02:54:23.083Z,27.97
2019-04-14T02:56:52.165Z,27.10
2019-04-14T02:59:22.643Z,28.83
2019-04-14T03:02:09.738Z,27.40
2019-04-14T03:04:21.672Z,25.47
2019-04-14T03:06:56.378Z,28.40
2019-04-14T03:09:32.125Z,25.20
2019-04-14T03:11:54.972Z,27.53
2019-04-14T03:20:37.266Z,24.57
2019-04-14T03:22:57.057Z,24.13
2019-04-14T03:25:49.253Z,25.33
2019-04-14T03:28:33.922Z,26.67
2019-04-14T03:41:12.341Z,26.93
2019-04-14T03:43:30.963Z,25.57
2019-04-14T03:46:12.068Z,24.87
2019-04-14T03:51:13.625Z,26.63
2019-04-14T03:53:45.809Z,23.90
2019-04-14T03:56:18.046Z,26.87
2019-04-14T03:58:46.856Z,25.90
2019-04-14T04:01:15.621Z,26.30
2019-04-14T04:03:45.506Z,27.27
2019-04-14T04:06:14.573Z,25.73
2019-04-14T04:08:44.118Z,24.97
2019-04-14T04:11:13.034Z,27.27
2019-04-14T04:13:41.844Z,25.67
2019-04-14T04:16:20.257Z,26.03
2019-04-14T04:18:57.892Z,24.87
2019-04-14T04:21:50.943Z,23.40
2019-04-14T04:24:37.026Z,23.23
2019-04-14T04:27:18.660Z,26.10
2019-04-14T04:30:08.645Z,23.70
2019-04-14T04:32:55.853Z,24.70
2019-04-14T04:35:37.139Z,23.90
2019-04-14T04:38:13.734Z,26.77
2019-04-14T04:40:42.558Z,27.23
2019-04-14T04:43:12.472Z,25.20
2019-04-14T04:45:41.255Z,25.67
2019-04-14T04:48:10.879Z,27.57
2019-04-14T04:50:40.934Z,24.87
2019-04-14T04:53:09.765Z,29.30
2019-04-14T04:55:39.502Z,24.63
2019-04-14T04:58:08.248Z,25.67
2019-04-14T05:00:37.326Z,29.17
2019-04-14T05:03:06.178Z,27.53
2019-04-14T05:06:09.157Z,27.97
2019-04-14T05:08:39.747Z,26.10
2019-04-14T05:11:20.691Z,27.57
2019-04-14T05:13:51.103Z,29.67
2019-04-14T05:16:20.014Z,30.93
2019-04-14T05:18:49.034Z,30.50
2019-04-14T05:21:17.787Z,27.43
2019-04-14T05:23:47.389Z,28.93
2019-04-14T05:26:17.702Z,27.77
2019-04-14T05:28:46.583Z,26.47
2019-04-14T05:31:16.367Z,27.17
2019-04-14T05:33:45.213Z,26.27
2019-04-14T05:36:15.024Z,28.70
2019-04-14T05:38:44.928Z,28.27
2019-04-14T05:41:13.996Z,28.70
2019-04-14T05:43:48.761Z,26.60
2019-04-14T05:46:14.246Z,28.10
2019-04-14T05:48:43.092Z,27.73
2019-04-14T05:51:12.978Z,28.00
2019-04-14T05:53:42.220Z,26.17
2019-04-14T05:56:12.174Z,40.63
2019-04-14T05:58:41.135Z,36.67
2019-04-14T06:01:11.343Z,34.27
2019-04-14T06:03:40.778Z,33.87
2019-04-14T06:06:09.766Z,31.83
2019-04-14T06:08:38.530Z,33.60
2019-04-14T06:11:07.241Z,32.30
2019-04-14T06:13:35.996Z,32.57
2019-04-14T06:16:04.932Z,31.00
2019-04-14T06:18:33.676Z,29.93
2019-04-14T06:21:08.557Z,26.33
2019-04-14T06:23:39.164Z,32.37
2019-04-14T06:26:08.237Z,35.60
2019-04-14T06:28:37.053Z,40.03
2019-04-14T06:31:19.594Z,32.43
2019-04-14T06:34:00.814Z,33.43
2019-04-14T06:36:47.331Z,34.43
2019-04-14T06:39:19.652Z,36.17
2019-04-14T06:41:48.401Z,35.27
2019-04-14T06:44:17.313Z,30.77
2019-04-14T06:46:46.251Z,30.27
2019-04-14T06:49:15.036Z,29.70
2019-04-14T06:51:47.622Z,30.50
2019-04-14T06:54:16.487Z,27.47
2019-04-14T06:56:45.495Z,29.50
2019-04-14T06:59:16.756Z,29.23
2019-04-14T07:01:46.143Z,27.90
2019-04-14T07:04:15.130Z,27.90
2019-04-14T07:06:43.870Z,25.73
2019-04-14T07:09:20.228Z,29.17
2019-04-14T07:11:49.012Z,33.00
2019-04-14T07:14:17.752Z,27.93
2019-04-14T07:16:46.603Z,26.27
2019-04-14T07:19:15.769Z,23.87
2019-04-14T07:21:44.757Z,23.93
2019-04-14T07:24:14.773Z,27.23
2019-04-14T07:26:48.748Z,23.83
2019-04-14T07:29:17.684Z,20.97
2019-04-14T07:32:05.707Z,25.03
2019-04-14T07:34:54.273Z,25.53
2019-04-14T07:37:34.653Z,24.40
2019-04-14T07:40:12.909Z,25.93
2019-04-14T07:42:51.685Z,24.27
2019-04-14T07:45:25.045Z,24.73
2019-04-14T07:48:02.876Z,24.97
2019-04-14T07:50:49.918Z,24.30
2019-04-14T07:53:56.088Z,25.60
2019-04-14T07:56:43.903Z,28.43
2019-04-14T07:59:40.972Z,26.23
2019-04-14T08:02:16.140Z,29.17
2019-04-14T08:04:58.927Z,26.20
2019-04-14T08:07:36.917Z,26.37
2019-04-14T08:10:07.591Z,26.90
2019-04-14T08:12:36.555Z,26.50
2019-04-14T08:15:07.484Z,25.00
2019-04-14T08:17:36.186Z,33.67
2019-04-14T08:20:05.779Z,29.83
2019-04-14T08:22:34.673Z,30.60
2019-04-14T08:25:04.507Z,26.33
2019-04-14T08:27:34.598Z,26.33
2019-04-14T08:30:03.663Z,25.53
2019-04-14T08:32:32.476Z,26.87
2019-04-14T08:35:01.456Z,24.77
2019-04-14T08:37:30.468Z,26.27
2019-04-14T08:39:59.470Z,26.63
2019-04-14T08:42:47.355Z,25.10
2019-04-14T08:45:34.098Z,24.27
2019-04-14T08:48:20.305Z,26.53
2019-04-14T08:50:55.697Z,25.53
2019-04-14T08:53:34.573Z,22.23
2019-04-14T08:56:19.298Z,25.50
2019-04-14T08:59:01.978Z,26.20
2019-04-14T09:01:36.357Z,27.20
2019-04-14T09:04:33.717Z,27.37
2019-04-14T09:07:33.449Z,26.87
2019-04-14T09:10:06.977Z,25.87
2019-04-14T09:12:37.938Z,29.20
2019-04-14T09:15:11.502Z,27.87
2019-04-14T09:17:40.677Z,25.03
2019-04-14T09:20:10.055Z,27.47
2019-04-14T09:22:38.863Z,26.50
2019-04-14T09:25:08.337Z,27.93
2019-04-14T09:27:37.362Z,26.77
2019-04-14T09:30:07.224Z,29.67
2019-04-14T09:32:36.321Z,25.97
2019-04-14T09:35:05.710Z,24.70
2019-04-14T09:37:34.532Z,25.50
2019-04-14T09:40:03.571Z,26.37
2019-04-14T09:42:32.644Z,26.13
2019-04-14T09:45:01.695Z,24.17
2019-04-14T09:47:30.680Z,27.03
2019-04-14T09:49:59.863Z,24.20
2019-04-14T09:52:28.808Z,25.60
2019-04-14T09:54:57.962Z,24.43
2019-04-14T09:57:26.857Z,27.67
2019-04-14T09:59:55.778Z,24.50
2019-04-14T10:02:26.313Z,23.43
2019-04-14T10:04:55.327Z,24.13
2019-04-14T10:07:25.475Z,25.03
2019-04-14T10:09:54.430Z,24.63
2019-04-14T10:12:25.623Z,27.33
2019-04-14T10:14:54.484Z,24.33
2019-04-14T10:17:32.914Z,27.97
2019-04-14T10:20:03.228Z,27.60
2019-04-14T10:22:34.118Z,94.27
2019-04-14T10:25:02.871Z,25.70
2019-04-14T10:27:32.090Z,32.00
2019-04-14T10:30:01.105Z,31.77
2019-04-14T10:32:29.945Z,24.70
2019-04-14T10:34:58.783Z,42.97
2019-04-14T10:37:27.904Z,29.70
2019-04-14T10:39:57.006Z,24.03
2019-04-14T10:42:26.620Z,43.33
2019-04-14T10:44:55.802Z,24.93
2019-04-14T10:47:26.015Z,24.47
2019-04-14T10:49:55.224Z,28.13
2019-04-14T10:52:25.537Z,26.20
2019-04-14T10:55:14.010Z,30.73
2019-04-14T11:02:09.275Z,27.17
2019-04-14T11:04:40.308Z,28.97
2019-04-14T11:07:13.778Z,27.97
2019-04-14T11:09:49.992Z,36.27
2019-04-14T11:12:18.902Z,31.23
2019-04-14T11:14:48.778Z,32.47
2019-04-14T11:17:17.970Z,37.43
2019-04-14T11:19:48.560Z,43.50
2019-04-14T11:22:17.324Z,37.37
2019-04-14T11:24:46.037Z,31.73
2019-04-14T11:27:15.080Z,29.10
2019-04-14T11:29:43.857Z,26.67
2019-04-14T11:32:42.234Z,30.13
2019-04-14T11:35:24.402Z,23.87
2019-04-14T11:38:21.531Z,32.23
2019-04-14T11:40:52.893Z,31.03
2019-04-14T11:43:21.842Z,31.07
2019-04-14T11:45:51.189Z,35.40
2019-04-14T11:48:21.466Z,30.80
2019-04-14T11:50:53.368Z,31.50
2019-04-14T11:53:22.105Z,30.07
2019-04-14T11:55:52.447Z,31.47
2019-04-14T11:58:21.263Z,31.97
2019-04-14T12:01:09.230Z,30.40
2019-04-14T12:03:46.204Z,29.93
2019-04-14T12:06:24.221Z,34.43
2019-04-14T12:09:13.482Z,32.43
2019-04-14T12:11:42.973Z,30.20
2019-04-14T12:14:12.026Z,38.33
2019-04-14T12:16:46.295Z,34.50
2019-04-14T12:19:17.173Z,34.97
2019-04-14T12:21:48.516Z,31.20
2019-04-14T12:24:18.738Z,36.00
2019-04-14T12:26:47.679Z,29.80
2019-04-14T12:29:18.979Z,32.93
2019-04-14T12:31:50.849Z,35.23
2019-04-14T12:34:19.734Z,26.73
2019-04-14T12:36:56.029Z,27.03
2019-04-14T12:39:28.359Z,28.90
2019-04-14T12:42:28.818Z,26.13
2019-04-14T12:45:23.435Z,27.37
2019-04-14T12:48:09.933Z,26.00
2019-04-14T12:50:43.314Z,23.43
2019-04-14T12:53:12.065Z,23.23
2019-04-14T12:55:41.200Z,22.23
2019-04-14T12:58:16.396Z,24.27
2019-04-14T13:00:51.446Z,19.87
2019-04-14T13:03:21.278Z,19.67
2019-04-14T13:05:50.166Z,22.27
2019-04-14T13:08:19.081Z,21.13
2019-04-14T13:10:48.565Z,17.53
2019-04-14T13:13:30.992Z,16.33
2019-04-14T13:16:00.005Z,16.07
2019-04-14T13:18:29.111Z,14.53
2019-04-14T13:20:59.184Z,16.20
2019-04-14T13:23:31.999Z,14.70
2019-04-14T13:26:01.041Z,13.03
2019-04-14T13:28:30.338Z,14.73
2019-04-14T13:31:01.170Z,13.03
2019-04-14T13:33:37.157Z,13.43
2019-04-14T13:36:09.270Z,12.33
2019-04-14T13:38:38.167Z,12.93
2019-04-14T13:41:08.955Z,13.90
2019-04-14T13:43:45.028Z,14.23
2019-04-14T13:46:16.877Z,12.40
2019-04-14T13:48:48.751Z,13.77
2019-04-14T13:51:17.849Z,15.97
2019-04-14T13:53:46.954Z,16.00
2019-04-14T13:56:16.141Z,16.07
2019-04-14T13:58:47.962Z,13.00
2019-04-14T14:01:18.554Z,19.83
2019-04-14T14:03:51.742Z,13.23
2019-04-14T14:06:20.666Z,13.83
2019-04-14T14:08:49.555Z,13.60
2019-04-14T14:11:39.349Z,12.83
2019-04-14T14:14:14.197Z,12.93
2019-04-14T14:17:01.986Z,9.17
2019-04-14T14:19:48.904Z,8.73
2019-04-14T14:22:31.660Z,7.43
2019-04-14T14:25:06.061Z,10.97
2019-04-14T14:27:37.071Z,7.27
2019-04-14T14:30:06.743Z,8.33
2019-04-14T14:32:36.586Z,8.03
2019-04-14T14:35:07.362Z,9.17
2019-04-14T14:37:39.001Z,10.73
2019-04-14T14:40:08.523Z,8.87
2019-04-14T14:42:37.409Z,8.77
2019-04-14T14:45:16.223Z,8.63
2019-04-14T14:47:51.665Z,7.53
2019-04-14T14:50:29.195Z,11.07
2019-04-14T14:53:11.395Z,8.23
2019-04-14T14:55:32.009Z,8.93
2019-04-14T14:58:01.052Z,7.40
2019-04-14T15:00:34.231Z,6.97
2019-04-14T15:03:03.389Z,6.77
2019-04-14T15:05:32.351Z,6.00
2019-04-14T15:08:01.384Z,5.73
2019-04-14T15:10:30.178Z,6.67
2019-04-14T15:13:01.031Z,7.60
2019-04-14T15:15:32.937Z,7.20
2019-04-14T15:18:04.921Z,6.10
2019-04-14T15:20:34.245Z,6.90
2019-04-14T15:23:03.190Z,6.43
2019-04-14T15:25:32.333Z,10.77
2019-04-14T15:28:01.102Z,6.87
2019-04-14T15:30:30.022Z,6.67
2019-04-14T15:32:58.934Z,10.67
2019-04-14T15:35:27.748Z,6.37
2019-04-14T15:37:56.615Z,8.90
2019-04-14T15:40:25.448Z,7.43
2019-04-14T15:42:54.278Z,6.67
2019-04-14T15:45:23.106Z,6.80
2019-04-14T15:47:53.185Z,7.63
2019-04-14T15:50:44.467Z,6.60
2019-04-14T15:53:13.399Z,6.03
2019-04-14T15:55:42.243Z,5.90
2019-04-14T15:58:17.906Z,6.00
2019-04-14T16:01:11.466Z,7.10
2019-04-14T16:03:51.084Z,6.33
2019-04-14T16:06:38.314Z,5.67
2019-04-14T16:09:30.350Z,7.30
2019-04-14T16:12:20.207Z,8.03
2019-04-14T16:14:56.619Z,8.40
2019-04-14T16:17:35.701Z,5.90
2019-04-14T16:20:11.106Z,7.43
2019-04-14T16:22:41.024Z,6.13
2019-04-14T16:25:10.041Z,6.40
2019-04-14T16:28:28.971Z,9.00
2019-04-14T16:31:16.762Z,10.30
2019-04-14T16:34:10.430Z,10.73
2019-04-14T16:36:39.898Z,7.17
2019-04-14T16:39:08.742Z,8.27
2019-04-14T16:41:37.729Z,9.77
2019-04-14T16:44:06.644Z,9.53
2019-04-14T16:46:35.392Z,8.88
2019-04-14T16:49:04.193Z,8.20
2019-04-14T16:51:38.752Z,8.37
2019-04-14T16:54:18.336Z,8.83
2019-04-14T16:57:03.263Z,10.23
2019-04-14T16:59:32.023Z,11.90
2019-04-14T17:02:10.913Z,12.80
2019-04-14T17:04:31.547Z,13.23
2019-04-14T17:07:00.420Z,53.17
2019-04-14T17:09:29.287Z,12.13
2019-04-14T17:11:59.419Z,8.87
2019-04-14T17:14:36.059Z,8.00
2019-04-14T17:17:11.874Z,10.33
2019-04-14T17:20:02.741Z,10.40
2019-04-14T17:22:39.476Z,8.10
2019-04-14T17:25:27.534Z,8.47
2019-04-14T17:28:11.609Z,9.53
2019-04-14T17:31:02.312Z,9.77
2019-04-14T17:33:49.516Z,8.33
2019-04-14T17:36:40.215Z,7.83
2019-04-14T17:39:24.978Z,8.70
2019-04-14T17:42:15.963Z,19.27
2019-04-14T17:45:01.028Z,11.77
2019-04-14T17:47:39.689Z,16.47
2019-04-14T17:50:39.801Z,18.60
2019-04-14T17:53:07.438Z,18.30
2019-04-14T17:55:55.330Z,18.03
2019-04-14T17:58:33.380Z,17.57
2019-04-14T18:01:12.157Z,14.37
2019-04-14T18:03:54.611Z,11.50
2019-04-14T18:06:37.109Z,14.37
2019-04-14T18:09:13.457Z,18.90
2019-04-14T18:12:02.435Z,14.63
2019-04-14T18:14:47.942Z,15.13
2019-04-14T18:17:27.895Z,12.90
2019-04-14T18:20:01.061Z,25.50
2019-04-14T18:22:29.842Z,75.57
2019-04-14T18:24:58.626Z,19.83
2019-04-14T18:27:27.368Z,96.63
2019-04-14T18:30:06.622Z,73.63
2019-04-14T18:32:47.153Z,46.20
2019-04-14T18:35:22.359Z,23.53
2019-04-14T18:38:08.996Z,25.53
2019-04-14T18:40:46.560Z,46.23
2019-04-14T18:43:32.171Z,26.37
2019-04-14T18:46:07.379Z,22.10
2019-04-14T18:48:41.031Z,16.13
2019-04-14T18:51:20.276Z,16.33
2019-04-14T18:54:08.393Z,19.23
2019-04-14T18:56:56.162Z,26.33
2019-04-14T18:59:42.667Z,19.00
2019-04-14T19:02:13.453Z,16.40
2019-04-14T19:04:42.328Z,21.77
2019-04-14T19:07:11.573Z,17.73
2019-04-14T19:09:40.600Z,18.20
2019-04-14T19:12:33.929Z,15.50
2019-04-14T19:15:17.482Z,14.63
2019-04-14T19:17:55.638Z,16.20
2019-04-14T19:20:24.498Z,14.37
2019-04-14T19:22:53.251Z,14.17
2019-04-14T19:25:21.983Z,23.53
2019-04-14T19:27:51.072Z,14.47
2019-04-14T19:30:20.174Z,18.07
2019-04-14T19:32:48.963Z,18.20
2019-04-14T19:35:17.706Z,15.13
2019-04-14T19:37:46.629Z,18.93
2019-04-14T19:40:15.687Z,17.53
2019-04-14T19:42:44.506Z,16.07
2019-04-14T19:45:13.533Z,17.47
2019-04-14T19:47:42.272Z,17.33
2019-04-14T19:50:11.819Z,18.40
2019-04-14T19:52:40.547Z,17.87
2019-04-14T19:55:19.918Z,16.83
2019-04-14T19:57:39.979Z,17.70
2019-04-14T20:00:09.017Z,17.47
2019-04-14T20:02:37.943Z,16.50
2019-04-14T20:05:07.016Z,18.63
2019-04-14T20:07:35.780Z,17.20
2019-04-14T20:10:05.982Z,17.63
2019-04-14T20:12:34.802Z,17.53
2019-04-14T20:15:03.622Z,18.33
2019-04-14T20:17:54.413Z,17.67
2019-04-14T20:20:37.996Z,19.17
2019-04-14T20:23:37.767Z,19.53
2019-04-14T20:26:25.719Z,22.27
2019-04-14T20:29:13.531Z,18.40
2019-04-14T20:31:55.089Z,18.73
2019-04-14T20:34:23.997Z,19.80
2019-04-14T20:36:52.769Z,18.50
2019-04-14T20:39:22.071Z,19.53
2019-04-14T20:41:50.878Z,18.53
2019-04-14T20:44:19.675Z,21.87
2019-04-14T20:46:48.624Z,22.80
2019-04-14T20:49:17.372Z,20.97
2019-04-14T20:51:46.208Z,23.03
2019-04-14T20:54:15.150Z,23.80
2019-04-14T20:56:43.935Z,24.07
2019-04-14T20:59:12.709Z,30.50
2019-04-14T21:01:44.690Z,31.40
2019-04-14T21:04:22.762Z,26.27
2019-04-14T21:07:09.345Z,26.30
2019-04-14T21:09:44.031Z,21.37
2019-04-14T21:12:38.389Z,22.70
2019-04-14T21:15:22.305Z,22.70
2019-04-14T21:18:09.055Z,20.10
2019-04-14T21:21:03.140Z,21.33
2019-04-14T21:23:51.058Z,26.67
2019-04-14T21:26:32.079Z,22.03
2019-04-14T21:29:28.974Z,23.73
2019-04-14T21:32:04.119Z,26.37
2019-04-14T21:34:46.647Z,22.63
2019-04-14T21:37:25.677Z,18.40
2019-04-14T21:40:12.540Z,20.20
2019-04-14T21:42:42.117Z,20.03
2019-04-14T21:45:11.188Z,29.00
2019-04-14T21:47:39.930Z,25.97
2019-04-14T21:50:09.140Z,24.23
2019-04-14T21:52:43.197Z,24.47
2019-04-14T21:55:12.108Z,45.83
2019-04-14T21:57:59.868Z,37.20
2019-04-14T22:01:42.056Z,28.37
2019-04-14T22:04:28.697Z,38.40
2019-04-14T22:06:59.675Z,35.63
2019-04-14T22:09:32.658Z,34.23
2019-04-14T22:12:03.442Z,36.30
2019-04-14T22:14:32.188Z,35.50
2019-04-14T22:17:00.945Z,27.50
2019-04-14T22:19:30.226Z,27.13
2019-04-14T22:21:59.000Z,26.90
2019-04-14T22:24:27.757Z,25.47
2019-04-14T22:26:56.517Z,21.27
2019-04-14T22:29:25.256Z,26.60
2019-04-14T22:31:54.009Z,24.77
2019-04-14T22:34:22.812Z,22.90
2019-04-14T22:36:51.537Z,22.43
2019-04-14T22:39:20.567Z,24.60
2019-04-14T22:41:49.317Z,22.37
2019-04-14T22:44:18.083Z,24.97
2019-04-14T22:46:47.009Z,24.53
2019-04-14T22:49:15.782Z,24.27
2019-04-14T22:51:44.526Z,30.17
2019-04-14T22:54:13.320Z,26.97
2019-04-14T22:56:42.113Z,29.47
2019-04-14T22:59:10.895Z,30.63
2019-04-14T23:01:42.836Z,29.47
2019-04-14T23:04:30.792Z,26.93
2019-04-14T23:07:11.463Z,28.17
2019-04-14T23:09:47.063Z,24.80
2019-04-14T23:12:21.063Z,24.77
2019-04-14T23:15:00.482Z,24.27
2019-04-14T23:17:57.317Z,27.40
2019-04-14T23:20:43.932Z,31.83
2019-04-14T23:23:31.882Z,34.03
2019-04-14T23:26:00.722Z,36.27
2019-04-14T23:28:29.572Z,64.20
2019-04-14T23:31:01.457Z,67.67
2019-04-14T23:33:28.899Z,62.97
2019-04-14T23:35:57.665Z,48.97
2019-04-14T23:38:26.415Z,53.03
2019-04-14T23:40:55.190Z,35.73
2019-04-14T23:43:26.763Z,37.33
2019-04-14T23:45:55.955Z,34.00
2019-04-14T23:48:24.703Z,36.00
2019-04-14T23:50:53.442Z,31.57
2019-04-14T23:53:22.605Z,32.77
2019-04-14T23:55:52.059Z,34.00
2019-04-14T23:58:20.870Z,33.23
